sensor_id;sensor_type;location;lat;lon;timestamp;P1;durP1;ratioP1;P2;durP2;ratioP2
13985;SDS011;7067;51.832;8.296;2024-01-07T00:01:10;26.77;;;19.47;;
13985;SDS011;7067;51.832;8.296;2024-01-07T00:03:35;31.03;;;21.33;;
13985;SDS011;7067;51.832;8.296;2024-01-07T00:06:01;28.07;;;19.70;;
13985;SDS011;7067;51.832;8.296;2024-01-07T00:08:26;28.33;;;19.90;;
13985;SDS011;7067;51.832;8.296;2024-01-07T00:10:51;26.60;;;19.10;;
13985;SDS011;7067;51.832;8.296;2024-01-07T00:13:17;25.03;;;19.37;;
13985;SDS011;7067;51.832;8.296;2024-01-07T00:15:42;25.53;;;18.90;;
13985;SDS011;7067;51.832;8.296;2024-01-07T00:18:08;25.03;;;19.40;;
13985;SDS011;7067;51.832;8.296;2024-01-07T00:20:36;22.27;;;17.80;;
13985;SDS011;7067;51.832;8.296;2024-01-07T00:23:02;26.20;;;19.13;;
13985;SDS011;7067;51.832;8.296;2024-01-07T00:25:27;22.23;;;17.17;;
13985;SDS011;7067;51.832;8.296;2024-01-07T00:27:53;21.23;;;16.90;;
13985;SDS011;7067;51.832;8.296;2024-01-07T00:30:20;22.43;;;18.30;;
13985;SDS011;7067;51.832;8.296;2024-01-07T00:32:45;19.10;;;15.53;;
13985;SDS011;7067;51.832;8.296;2024-01-07T00:35:11;21.50;;;16.63;;
13985;SDS011;7067;51.832;8.296;2024-01-07T00:37:36;17.30;;;15.50;;
13985;SDS011;7067;51.832;8.296;2024-01-07T00:40:02;17.43;;;13.83;;
13985;SDS011;7067;51.832;8.296;2024-01-07T00:42:28;18.27;;;14.67;;
13985;SDS011;7067;51.832;8.296;2024-01-07T00:44:54;20.40;;;15.53;;
13985;SDS011;7067;51.832;8.296;2024-01-07T00:47:19;18.87;;;15.03;;
13985;SDS011;7067;51.832;8.296;2024-01-07T00:49:45;20.27;;;16.70;;
13985;SDS011;7067;51.832;8.296;2024-01-07T00:52:10;18.40;;;15.33;;
13985;SDS011;7067;51.832;8.296;2024-01-07T00:54:35;16.57;;;13.97;;
13985;SDS011;7067;51.832;8.296;2024-01-07T00:57:01;16.43;;;13.70;;
13985;SDS011;7067;51.832;8.296;2024-01-07T00:59:28;18.43;;;15.10;;
13985;SDS011;7067;51.832;8.296;2024-01-07T01:01:54;21.57;;;15.90;;
13985;SDS011;7067;51.832;8.296;2024-01-07T01:04:19;18.07;;;15.70;;
13985;SDS011;7067;51.832;8.296;2024-01-07T01:06:45;18.00;;;14.60;;
13985;SDS011;7067;51.832;8.296;2024-01-07T01:09:10;23.47;;;16.50;;
13985;SDS011;7067;51.832;8.296;2024-01-07T01:11:36;18.20;;;14.30;;
13985;SDS011;7067;51.832;8.296;2024-01-07T01:14:01;20.67;;;15.57;;
13985;SDS011;7067;51.832;8.296;2024-01-07T01:16:26;21.67;;;15.90;;
13985;SDS011;7067;51.832;8.296;2024-01-07T01:18:51;20.60;;;16.10;;
13985;SDS011;7067;51.832;8.296;2024-01-07T01:21:17;21.13;;;16.00;;
13985;SDS011;7067;51.832;8.296;2024-01-07T01:23:43;17.13;;;14.80;;
13985;SDS011;7067;51.832;8.296;2024-01-07T01:26:09;17.47;;;14.53;;
13985;SDS011;7067;51.832;8.296;2024-01-07T01:28:34;18.63;;;15.33;;
13985;SDS011;7067;51.832;8.296;2024-01-07T01:31:00;16.87;;;14.17;;
13985;SDS011;7067;51.832;8.296;2024-01-07T01:33:25;17.47;;;13.87;;
13985;SDS011;7067;51.832;8.296;2024-01-07T01:35:50;17.10;;;13.50;;
13985;SDS011;7067;51.832;8.296;2024-01-07T01:38:16;19.90;;;15.37;;
13985;SDS011;7067;51.832;8.296;2024-01-07T01:40:41;21.07;;;14.60;;
13985;SDS011;7067;51.832;8.296;2024-01-07T01:43:07;19.07;;;14.20;;
13985;SDS011;7067;51.832;8.296;2024-01-07T01:45:32;17.23;;;14.50;;
13985;SDS011;7067;51.832;8.296;2024-01-07T01:47:57;15.37;;;13.23;;
13985;SDS011;7067;51.832;8.296;2024-01-07T01:50:23;15.07;;;13.40;;
13985;SDS011;7067;51.832;8.296;2024-01-07T01:52:49;16.97;;;13.70;;
13985;SDS011;7067;51.832;8.296;2024-01-07T01:55:14;18.20;;;14.43;;
13985;SDS011;7067;51.832;8.296;2024-01-07T01:57:39;17.20;;;13.30;;
13985;SDS011;7067;51.832;8.296;2024-01-07T02:00:05;17.97;;;13.33;;
13985;SDS011;7067;51.832;8.296;2024-01-07T02:02:32;16.73;;;13.23;;
13985;SDS011;7067;51.832;8.296;2024-01-07T02:04:59;18.63;;;14.20;;
13985;SDS011;7067;51.832;8.296;2024-01-07T02:07:28;18.03;;;13.73;;
13985;SDS011;7067;51.832;8.296;2024-01-07T02:09:57;16.47;;;12.90;;
13985;SDS011;7067;51.832;8.296;2024-01-07T02:12:22;16.77;;;13.03;;
13985;SDS011;7067;51.832;8.296;2024-01-07T02:14:47;15.37;;;13.17;;
13985;SDS011;7067;51.832;8.296;2024-01-07T02:17:13;14.80;;;12.17;;
13985;SDS011;7067;51.832;8.296;2024-01-07T02:19:39;13.10;;;11.80;;
13985;SDS011;7067;51.832;8.296;2024-01-07T02:22:05;13.87;;;12.43;;
13985;SDS011;7067;51.832;8.296;2024-01-07T02:24:30;15.70;;;11.50;;
13985;SDS011;7067;51.832;8.296;2024-01-07T02:26:56;15.30;;;11.63;;
13985;SDS011;7067;51.832;8.296;2024-01-07T02:29:21;14.20;;;12.33;;
13985;SDS011;7067;51.832;8.296;2024-01-07T02:31:47;15.63;;;12.63;;
13985;SDS011;7067;51.832;8.296;2024-01-07T02:34:16;13.23;;;11.38;;
13985;SDS011;7067;51.832;8.296;2024-01-07T02:36:41;15.43;;;12.37;;
13985;SDS011;7067;51.832;8.296;2024-01-07T02:39:06;15.30;;;12.33;;
13985;SDS011;7067;51.832;8.296;2024-01-07T02:41:32;13.43;;;12.00;;
13985;SDS011;7067;51.832;8.296;2024-01-07T02:43:57;14.63;;;11.60;;
13985;SDS011;7067;51.832;8.296;2024-01-07T02:46:23;16.73;;;12.30;;
13985;SDS011;7067;51.832;8.296;2024-01-07T02:48:49;17.60;;;12.00;;
13985;SDS011;7067;51.832;8.296;2024-01-07T02:51:14;16.40;;;12.20;;
13985;SDS011;7067;51.832;8.296;2024-01-07T02:53:39;14.90;;;11.43;;
13985;SDS011;7067;51.832;8.296;2024-01-07T02:56:05;12.47;;;10.77;;
13985;SDS011;7067;51.832;8.296;2024-01-07T02:58:30;12.10;;;10.53;;
13985;SDS011;7067;51.832;8.296;2024-01-07T03:00:56;12.40;;;11.10;;
13985;SDS011;7067;51.832;8.296;2024-01-07T03:03:21;11.10;;;9.90;;
13985;SDS011;7067;51.832;8.296;2024-01-07T03:05:46;13.47;;;10.90;;
13985;SDS011;7067;51.832;8.296;2024-01-07T03:08:12;12.97;;;10.53;;
13985;SDS011;7067;51.832;8.296;2024-01-07T03:10:37;11.87;;;10.33;;
13985;SDS011;7067;51.832;8.296;2024-01-07T03:13:03;12.37;;;10.03;;
13985;SDS011;7067;51.832;8.296;2024-01-07T03:15:29;12.80;;;11.47;;
13985;SDS011;7067;51.832;8.296;2024-01-07T03:17:54;13.20;;;10.37;;
13985;SDS011;7067;51.832;8.296;2024-01-07T03:20:19;11.13;;;9.73;;
13985;SDS011;7067;51.832;8.296;2024-01-07T03:22:45;11.87;;;9.83;;
13985;SDS011;7067;51.832;8.296;2024-01-07T03:25:10;13.27;;;9.50;;
13985;SDS011;7067;51.832;8.296;2024-01-07T03:27:35;11.70;;;9.77;;
13985;SDS011;7067;51.832;8.296;2024-01-07T03:30:01;12.53;;;10.17;;
13985;SDS011;7067;51.832;8.296;2024-01-07T03:32:26;11.03;;;9.70;;
13985;SDS011;7067;51.832;8.296;2024-01-07T03:34:51;10.57;;;9.07;;
13985;SDS011;7067;51.832;8.296;2024-01-07T03:37:17;12.40;;;9.57;;
13985;SDS011;7067;51.832;8.296;2024-01-07T03:39:43;11.23;;;9.70;;
13985;SDS011;7067;51.832;8.296;2024-01-07T03:42:09;12.83;;;10.13;;
13985;SDS011;7067;51.832;8.296;2024-01-07T03:44:37;10.10;;;9.07;;
13985;SDS011;7067;51.832;8.296;2024-01-07T03:47:03;15.53;;;11.13;;
13985;SDS011;7067;51.832;8.296;2024-01-07T03:49:29;13.20;;;10.63;;
13985;SDS011;7067;51.832;8.296;2024-01-07T03:51:54;12.97;;;10.20;;
13985;SDS011;7067;51.832;8.296;2024-01-07T03:54:19;12.77;;;10.63;;
13985;SDS011;7067;51.832;8.296;2024-01-07T03:56:44;9.97;;;9.03;;
13985;SDS011;7067;51.832;8.296;2024-01-07T03:59:10;12.70;;;11.20;;
13985;SDS011;7067;51.832;8.296;2024-01-07T04:01:35;10.30;;;9.20;;
13985;SDS011;7067;51.832;8.296;2024-01-07T04:04:00;13.87;;;10.40;;
13985;SDS011;7067;51.832;8.296;2024-01-07T04:06:26;15.13;;;10.83;;
13985;SDS011;7067;51.832;8.296;2024-01-07T04:08:51;11.17;;;9.73;;
13985;SDS011;7067;51.832;8.296;2024-01-07T04:11:16;13.80;;;11.77;;
13985;SDS011;7067;51.832;8.296;2024-01-07T04:13:42;13.97;;;11.17;;
13985;SDS011;7067;51.832;8.296;2024-01-07T04:16:15;13.23;;;10.00;;
13985;SDS011;7067;51.832;8.296;2024-01-07T04:18:43;12.43;;;9.90;;
13985;SDS011;7067;51.832;8.296;2024-01-07T04:21:09;12.50;;;10.43;;
13985;SDS011;7067;51.832;8.296;2024-01-07T04:23:35;12.33;;;10.03;;
13985;SDS011;7067;51.832;8.296;2024-01-07T04:26:00;12.47;;;9.50;;
13985;SDS011;7067;51.832;8.296;2024-01-07T04:28:25;10.80;;;9.37;;
13985;SDS011;7067;51.832;8.296;2024-01-07T04:30:51;13.30;;;10.37;;
13985;SDS011;7067;51.832;8.296;2024-01-07T04:33:16;13.40;;;9.90;;
13985;SDS011;7067;51.832;8.296;2024-01-07T04:35:42;12.10;;;9.93;;
13985;SDS011;7067;51.832;8.296;2024-01-07T04:38:08;12.03;;;9.77;;
13985;SDS011;7067;51.832;8.296;2024-01-07T04:40:33;12.47;;;9.90;;
13985;SDS011;7067;51.832;8.296;2024-01-07T04:42:59;11.43;;;9.60;;
13985;SDS011;7067;51.832;8.296;2024-01-07T04:45:25;13.03;;;9.17;;
13985;SDS011;7067;51.832;8.296;2024-01-07T04:47:50;9.43;;;8.50;;
13985;SDS011;7067;51.832;8.296;2024-01-07T04:50:16;11.50;;;8.67;;
13985;SDS011;7067;51.832;8.296;2024-01-07T04:52:44;10.37;;;9.23;;
13985;SDS011;7067;51.832;8.296;2024-01-07T04:55:10;12.17;;;9.47;;
13985;SDS011;7067;51.832;8.296;2024-01-07T04:57:35;9.40;;;8.07;;
13985;SDS011;7067;51.832;8.296;2024-01-07T05:00:01;12.33;;;9.50;;
13985;SDS011;7067;51.832;8.296;2024-01-07T05:02:28;11.73;;;9.60;;
13985;SDS011;7067;51.832;8.296;2024-01-07T05:04:53;10.90;;;9.80;;
13985;SDS011;7067;51.832;8.296;2024-01-07T05:07:19;10.20;;;9.00;;
13985;SDS011;7067;51.832;8.296;2024-01-07T05:09:44;10.80;;;8.97;;
13985;SDS011;7067;51.832;8.296;2024-01-07T05:12:09;10.77;;;9.23;;
13985;SDS011;7067;51.832;8.296;2024-01-07T05:14:35;12.27;;;8.77;;
13985;SDS011;7067;51.832;8.296;2024-01-07T05:17:02;11.67;;;8.57;;
13985;SDS011;7067;51.832;8.296;2024-01-07T05:19:27;10.53;;;8.70;;
13985;SDS011;7067;51.832;8.296;2024-01-07T05:21:53;11.67;;;9.53;;
13985;SDS011;7067;51.832;8.296;2024-01-07T05:24:18;10.60;;;8.63;;
13985;SDS011;7067;51.832;8.296;2024-01-07T05:26:44;12.40;;;9.17;;
13985;SDS011;7067;51.832;8.296;2024-01-07T05:29:09;9.03;;;8.07;;
13985;SDS011;7067;51.832;8.296;2024-01-07T05:31:37;10.23;;;8.60;;
13985;SDS011;7067;51.832;8.296;2024-01-07T05:34:02;8.40;;;7.60;;
13985;SDS011;7067;51.832;8.296;2024-01-07T05:36:28;9.00;;;8.07;;
13985;SDS011;7067;51.832;8.296;2024-01-07T05:38:53;7.90;;;7.20;;
13985;SDS011;7067;51.832;8.296;2024-01-07T05:41:19;7.20;;;6.50;;
13985;SDS011;7067;51.832;8.296;2024-01-07T05:43:44;9.17;;;7.90;;
13985;SDS011;7067;51.832;8.296;2024-01-07T05:46:10;8.50;;;7.30;;
13985;SDS011;7067;51.832;8.296;2024-01-07T05:48:49;8.23;;;7.33;;
13985;SDS011;7067;51.832;8.296;2024-01-07T05:51:14;8.57;;;7.67;;
13985;SDS011;7067;51.832;8.296;2024-01-07T05:53:41;8.87;;;7.43;;
13985;SDS011;7067;51.832;8.296;2024-01-07T05:56:07;9.03;;;7.77;;
13985;SDS011;7067;51.832;8.296;2024-01-07T05:58:32;8.73;;;7.70;;
13985;SDS011;7067;51.832;8.296;2024-01-07T06:00:58;9.47;;;8.50;;
13985;SDS011;7067;51.832;8.296;2024-01-07T06:03:23;10.23;;;8.87;;
13985;SDS011;7067;51.832;8.296;2024-01-07T06:05:49;12.77;;;9.40;;
13985;SDS011;7067;51.832;8.296;2024-01-07T06:08:14;10.57;;;9.17;;
13985;SDS011;7067;51.832;8.296;2024-01-07T06:10:40;9.43;;;8.20;;
13985;SDS011;7067;51.832;8.296;2024-01-07T06:13:05;10.57;;;9.47;;
13985;SDS011;7067;51.832;8.296;2024-01-07T06:15:31;11.33;;;9.70;;
13985;SDS011;7067;51.832;8.296;2024-01-07T06:17:56;11.83;;;9.60;;
13985;SDS011;7067;51.832;8.296;2024-01-07T06:20:22;11.90;;;9.33;;
13985;SDS011;7067;51.832;8.296;2024-01-07T06:22:48;10.07;;;9.07;;
13985;SDS011;7067;51.832;8.296;2024-01-07T06:25:13;10.27;;;9.13;;
13985;SDS011;7067;51.832;8.296;2024-01-07T06:27:38;11.20;;;8.80;;
13985;SDS011;7067;51.832;8.296;2024-01-07T06:30:05;14.07;;;10.13;;
13985;SDS011;7067;51.832;8.296;2024-01-07T06:32:30;12.73;;;9.43;;
13985;SDS011;7067;51.832;8.296;2024-01-07T06:34:57;12.13;;;9.50;;
13985;SDS011;7067;51.832;8.296;2024-01-07T06:37:23;11.80;;;9.23;;
13985;SDS011;7067;51.832;8.296;2024-01-07T06:39:48;11.50;;;8.73;;
13985;SDS011;7067;51.832;8.296;2024-01-07T06:42:13;9.53;;;8.17;;
13985;SDS011;7067;51.832;8.296;2024-01-07T06:44:39;10.63;;;8.33;;
13985;SDS011;7067;51.832;8.296;2024-01-07T06:47:04;10.07;;;8.87;;
13985;SDS011;7067;51.832;8.296;2024-01-07T06:49:29;9.17;;;8.37;;
13985;SDS011;7067;51.832;8.296;2024-01-07T06:51:55;10.83;;;8.67;;
13985;SDS011;7067;51.832;8.296;2024-01-07T06:54:20;9.10;;;8.17;;
13985;SDS011;7067;51.832;8.296;2024-01-07T06:56:45;9.23;;;8.27;;
13985;SDS011;7067;51.832;8.296;2024-01-07T06:59:10;9.53;;;8.23;;
13985;SDS011;7067;51.832;8.296;2024-01-07T07:01:36;9.03;;;8.17;;
13985;SDS011;7067;51.832;8.296;2024-01-07T07:04:02;8.50;;;7.60;;
13985;SDS011;7067;51.832;8.296;2024-01-07T07:06:27;8.87;;;7.97;;
13985;SDS011;7067;51.832;8.296;2024-01-07T07:08:53;11.37;;;7.50;;
13985;SDS011;7067;51.832;8.296;2024-01-07T07:11:18;9.57;;;6.97;;
13985;SDS011;7067;51.832;8.296;2024-01-07T07:13:44;8.10;;;7.30;;
13985;SDS011;7067;51.832;8.296;2024-01-07T07:16:09;10.47;;;6.90;;
13985;SDS011;7067;51.832;8.296;2024-01-07T07:18:35;7.07;;;6.33;;
13985;SDS011;7067;51.832;8.296;2024-01-07T07:21:00;7.50;;;6.13;;
13985;SDS011;7067;51.832;8.296;2024-01-07T07:23:25;8.50;;;6.70;;
13985;SDS011;7067;51.832;8.296;2024-01-07T07:25:51;9.20;;;6.67;;
13985;SDS011;7067;51.832;8.296;2024-01-07T07:28:16;8.03;;;6.90;;
13985;SDS011;7067;51.832;8.296;2024-01-07T07:30:42;9.10;;;7.07;;
13985;SDS011;7067;51.832;8.296;2024-01-07T07:33:07;9.17;;;6.90;;
13985;SDS011;7067;51.832;8.296;2024-01-07T07:35:33;6.60;;;5.90;;
13985;SDS011;7067;51.832;8.296;2024-01-07T07:37:58;6.43;;;5.63;;
13985;SDS011;7067;51.832;8.296;2024-01-07T07:40:23;6.77;;;5.50;;
13985;SDS011;7067;51.832;8.296;2024-01-07T07:42:49;5.70;;;4.87;;
13985;SDS011;7067;51.832;8.296;2024-01-07T07:45:14;6.63;;;5.77;;
13985;SDS011;7067;51.832;8.296;2024-01-07T07:47:39;6.47;;;5.67;;
13985;SDS011;7067;51.832;8.296;2024-01-07T07:52:35;5.77;;;5.00;;
13985;SDS011;7067;51.832;8.296;2024-01-07T07:55:00;5.83;;;5.13;;
13985;SDS011;7067;51.832;8.296;2024-01-07T07:57:25;6.17;;;4.50;;
13985;SDS011;7067;51.832;8.296;2024-01-07T07:59:51;11.73;;;4.87;;
13985;SDS011;7067;51.832;8.296;2024-01-07T08:02:16;6.67;;;4.33;;
13985;SDS011;7067;51.832;8.296;2024-01-07T08:04:42;5.77;;;4.80;;
13985;SDS011;7067;51.832;8.296;2024-01-07T08:07:08;6.77;;;4.87;;
13985;SDS011;7067;51.832;8.296;2024-01-07T08:09:34;6.27;;;4.53;;
13985;SDS011;7067;51.832;8.296;2024-01-07T08:12:02;6.50;;;4.20;;
13985;SDS011;7067;51.832;8.296;2024-01-07T08:14:28;9.33;;;3.80;;
13985;SDS011;7067;51.832;8.296;2024-01-07T08:16:54;6.37;;;3.50;;
13985;SDS011;7067;51.832;8.296;2024-01-07T08:19:19;7.87;;;4.10;;
13985;SDS011;7067;51.832;8.296;2024-01-07T08:21:45;5.40;;;4.17;;
13985;SDS011;7067;51.832;8.296;2024-01-07T08:24:10;5.97;;;4.27;;
13985;SDS011;7067;51.832;8.296;2024-01-07T08:26:36;4.83;;;3.63;;
13985;SDS011;7067;51.832;8.296;2024-01-07T08:29:01;4.67;;;3.93;;
13985;SDS011;7067;51.832;8.296;2024-01-07T08:31:27;5.87;;;3.60;;
13985;SDS011;7067;51.832;8.296;2024-01-07T08:33:52;3.70;;;3.03;;
13985;SDS011;7067;51.832;8.296;2024-01-07T08:36:17;4.23;;;3.43;;
13985;SDS011;7067;51.832;8.296;2024-01-07T08:38:43;4.67;;;3.47;;
13985;SDS011;7067;51.832;8.296;2024-01-07T08:41:08;5.67;;;3.87;;
13985;SDS011;7067;51.832;8.296;2024-01-07T08:43:34;4.63;;;2.93;;
13985;SDS011;7067;51.832;8.296;2024-01-07T08:45:59;5.77;;;3.50;;
13985;SDS011;7067;51.832;8.296;2024-01-07T08:48:25;4.67;;;2.97;;
13985;SDS011;7067;51.832;8.296;2024-01-07T08:50:51;3.50;;;3.20;;
13985;SDS011;7067;51.832;8.296;2024-01-07T08:53:17;3.67;;;3.33;;
13985;SDS011;7067;51.832;8.296;2024-01-07T08:55:43;6.13;;;3.53;;
13985;SDS011;7067;51.832;8.296;2024-01-07T08:58:08;3.53;;;3.00;;
13985;SDS011;7067;51.832;8.296;2024-01-07T09:00:34;10.07;;;5.13;;
13985;SDS011;7067;51.832;8.296;2024-01-07T09:02:59;5.83;;;3.90;;
13985;SDS011;7067;51.832;8.296;2024-01-07T09:05:24;4.40;;;3.40;;
13985;SDS011;7067;51.832;8.296;2024-01-07T09:07:50;4.60;;;3.73;;
13985;SDS011;7067;51.832;8.296;2024-01-07T09:10:15;4.00;;;2.63;;
13985;SDS011;7067;51.832;8.296;2024-01-07T09:12:41;4.00;;;2.27;;
13985;SDS011;7067;51.832;8.296;2024-01-07T09:15:06;4.27;;;3.37;;
13985;SDS011;7067;51.832;8.296;2024-01-07T09:17:36;4.40;;;2.97;;
13985;SDS011;7067;51.832;8.296;2024-01-07T09:20:07;4.93;;;3.10;;
13985;SDS011;7067;51.832;8.296;2024-01-07T09:22:33;3.23;;;2.93;;
13985;SDS011;7067;51.832;8.296;2024-01-07T09:24:59;3.53;;;3.23;;
13985;SDS011;7067;51.832;8.296;2024-01-07T09:27:26;5.33;;;3.17;;
13985;SDS011;7067;51.832;8.296;2024-01-07T09:29:51;3.83;;;3.07;;
13985;SDS011;7067;51.832;8.296;2024-01-07T09:32:17;4.17;;;3.17;;
13985;SDS011;7067;51.832;8.296;2024-01-07T09:34:42;4.23;;;3.60;;
13985;SDS011;7067;51.832;8.296;2024-01-07T09:37:08;3.53;;;3.23;;
13985;SDS011;7067;51.832;8.296;2024-01-07T09:39:38;3.87;;;3.10;;
13985;SDS011;7067;51.832;8.296;2024-01-07T09:42:05;3.20;;;2.90;;
13985;SDS011;7067;51.832;8.296;2024-01-07T09:44:33;3.80;;;2.80;;
13985;SDS011;7067;51.832;8.296;2024-01-07T09:46:58;3.40;;;2.93;;
13985;SDS011;7067;51.832;8.296;2024-01-07T09:49:24;4.00;;;3.17;;
13985;SDS011;7067;51.832;8.296;2024-01-07T09:51:49;3.47;;;3.10;;
13985;SDS011;7067;51.832;8.296;2024-01-07T09:54:17;4.17;;;3.23;;
13985;SDS011;7067;51.832;8.296;2024-01-07T09:56:43;3.90;;;3.30;;
13985;SDS011;7067;51.832;8.296;2024-01-07T09:59:15;6.77;;;3.20;;
13985;SDS011;7067;51.832;8.296;2024-01-07T10:01:41;2.93;;;2.63;;
13985;SDS011;7067;51.832;8.296;2024-01-07T10:04:07;5.93;;;3.27;;
13985;SDS011;7067;51.832;8.296;2024-01-07T10:06:32;3.53;;;3.03;;
13985;SDS011;7067;51.832;8.296;2024-01-07T10:08:58;4.03;;;3.50;;
13985;SDS011;7067;51.832;8.296;2024-01-07T10:11:24;3.37;;;2.63;;
13985;SDS011;7067;51.832;8.296;2024-01-07T10:13:49;4.40;;;2.67;;
13985;SDS011;7067;51.832;8.296;2024-01-07T10:16:16;2.67;;;2.20;;
13985;SDS011;7067;51.832;8.296;2024-01-07T10:18:42;4.73;;;2.90;;
13985;SDS011;7067;51.832;8.296;2024-01-07T10:21:07;3.23;;;2.83;;
13985;SDS011;7067;51.832;8.296;2024-01-07T10:23:33;3.13;;;2.37;;
13985;SDS011;7067;51.832;8.296;2024-01-07T10:25:58;3.57;;;2.43;;
13985;SDS011;7067;51.832;8.296;2024-01-07T10:28:23;2.93;;;2.03;;
13985;SDS011;7067;51.832;8.296;2024-01-07T10:30:49;2.43;;;2.17;;
13985;SDS011;7067;51.832;8.296;2024-01-07T10:33:17;2.60;;;2.40;;
13985;SDS011;7067;51.832;8.296;2024-01-07T10:35:45;4.50;;;2.90;;
13985;SDS011;7067;51.832;8.296;2024-01-07T10:38:15;2.67;;;2.27;;
13985;SDS011;7067;51.832;8.296;2024-01-07T10:40:40;2.70;;;2.43;;
13985;SDS011;7067;51.832;8.296;2024-01-07T10:43:08;2.57;;;1.80;;
13985;SDS011;7067;51.832;8.296;2024-01-07T10:45:34;3.00;;;2.73;;
13985;SDS011;7067;51.832;8.296;2024-01-07T10:47:59;2.83;;;2.43;;
13985;SDS011;7067;51.832;8.296;2024-01-07T10:50:31;3.17;;;2.50;;
13985;SDS011;7067;51.832;8.296;2024-01-07T10:53:03;3.13;;;2.53;;
13985;SDS011;7067;51.832;8.296;2024-01-07T10:55:33;3.87;;;3.03;;
13985;SDS011;7067;51.832;8.296;2024-01-07T10:58:01;5.67;;;2.57;;
13985;SDS011;7067;51.832;8.296;2024-01-07T11:00:28;4.00;;;2.20;;
13985;SDS011;7067;51.832;8.296;2024-01-07T11:03:11;3.03;;;1.93;;
13985;SDS011;7067;51.832;8.296;2024-01-07T11:05:49;3.40;;;2.37;;
13985;SDS011;7067;51.832;8.296;2024-01-07T11:08:28;3.13;;;2.83;;
13985;SDS011;7067;51.832;8.296;2024-01-07T11:10:59;4.67;;;2.87;;
13985;SDS011;7067;51.832;8.296;2024-01-07T11:13:36;2.10;;;1.80;;
13985;SDS011;7067;51.832;8.296;2024-01-07T11:16:03;4.27;;;2.77;;
13985;SDS011;7067;51.832;8.296;2024-01-07T11:18:37;2.33;;;2.10;;
13985;SDS011;7067;51.832;8.296;2024-01-07T11:21:23;2.85;;;2.20;;
13985;SDS011;7067;51.832;8.296;2024-01-07T11:23:51;2.20;;;1.60;;
13985;SDS011;7067;51.832;8.296;2024-01-07T11:26:18;2.40;;;2.20;;
13985;SDS011;7067;51.832;8.296;2024-01-07T11:28:44;2.73;;;2.20;;
13985;SDS011;7067;51.832;8.296;2024-01-07T11:31:17;2.70;;;2.47;;
13985;SDS011;7067;51.832;8.296;2024-01-07T11:33:44;3.97;;;2.67;;
13985;SDS011;7067;51.832;8.296;2024-01-07T11:36:11;2.90;;;2.63;;
13985;SDS011;7067;51.832;8.296;2024-01-07T11:38:37;5.17;;;3.20;;
13985;SDS011;7067;51.832;8.296;2024-01-07T11:41:04;2.97;;;2.57;;
13985;SDS011;7067;51.832;8.296;2024-01-07T11:43:30;4.30;;;2.73;;
13985;SDS011;7067;51.832;8.296;2024-01-07T11:45:57;2.93;;;2.67;;
13985;SDS011;7067;51.832;8.296;2024-01-07T11:48:23;3.60;;;2.93;;
13985;SDS011;7067;51.832;8.296;2024-01-07T11:50:48;1.90;;;1.80;;
13985;SDS011;7067;51.832;8.296;2024-01-07T11:53:14;2.33;;;1.90;;
13985;SDS011;7067;51.832;8.296;2024-01-07T11:55:39;4.07;;;2.83;;
13985;SDS011;7067;51.832;8.296;2024-01-07T11:58:05;4.27;;;2.37;;
13985;SDS011;7067;51.832;8.296;2024-01-07T12:00:31;3.57;;;1.90;;
13985;SDS011;7067;51.832;8.296;2024-01-07T12:03:02;3.83;;;2.13;;
13985;SDS011;7067;51.832;8.296;2024-01-07T12:05:28;3.03;;;1.90;;
13985;SDS011;7067;51.832;8.296;2024-01-07T12:07:53;3.57;;;2.50;;
13985;SDS011;7067;51.832;8.296;2024-01-07T12:10:19;3.43;;;2.27;;
13985;SDS011;7067;51.832;8.296;2024-01-07T12:12:44;21.03;;;10.97;;
13985;SDS011;7067;51.832;8.296;2024-01-07T12:15:10;4.33;;;3.33;;
13985;SDS011;7067;51.832;8.296;2024-01-07T12:17:38;3.53;;;2.40;;
13985;SDS011;7067;51.832;8.296;2024-01-07T12:20:04;2.33;;;1.90;;
13985;SDS011;7067;51.832;8.296;2024-01-07T12:22:30;3.50;;;2.10;;
13985;SDS011;7067;51.832;8.296;2024-01-07T12:25:02;1.73;;;1.63;;
13985;SDS011;7067;51.832;8.296;2024-01-07T12:27:28;2.10;;;1.73;;
13985;SDS011;7067;51.832;8.296;2024-01-07T12:29:59;3.93;;;1.67;;
13985;SDS011;7067;51.832;8.296;2024-01-07T12:32:29;2.43;;;2.20;;
13985;SDS011;7067;51.832;8.296;2024-01-07T12:34:57;2.50;;;2.30;;
13985;SDS011;7067;51.832;8.296;2024-01-07T12:39:53;2.43;;;2.23;;
13985;SDS011;7067;51.832;8.296;2024-01-07T12:42:19;3.60;;;2.60;;
13985;SDS011;7067;51.832;8.296;2024-01-07T12:44:46;2.23;;;2.00;;
13985;SDS011;7067;51.832;8.296;2024-01-07T12:47:13;4.10;;;2.20;;
13985;SDS011;7067;51.832;8.296;2024-01-07T12:49:39;2.03;;;1.77;;
13985;SDS011;7067;51.832;8.296;2024-01-07T12:52:04;2.60;;;2.40;;
13985;SDS011;7067;51.832;8.296;2024-01-07T12:54:30;2.90;;;2.30;;
13985;SDS011;7067;51.832;8.296;2024-01-07T12:56:55;5.70;;;2.13;;
13985;SDS011;7067;51.832;8.296;2024-01-07T12:59:21;3.33;;;2.40;;
13985;SDS011;7067;51.832;8.296;2024-01-07T13:01:46;2.57;;;2.37;;
13985;SDS011;7067;51.832;8.296;2024-01-07T13:04:11;3.57;;;2.30;;
13985;SDS011;7067;51.832;8.296;2024-01-07T13:06:37;3.73;;;2.53;;
13985;SDS011;7067;51.832;8.296;2024-01-07T13:09:02;2.60;;;2.40;;
13985;SDS011;7067;51.832;8.296;2024-01-07T13:11:30;4.07;;;3.00;;
13985;SDS011;7067;51.832;8.296;2024-01-07T13:13:56;2.80;;;2.20;;
13985;SDS011;7067;51.832;8.296;2024-01-07T13:16:25;3.53;;;2.70;;
13985;SDS011;7067;51.832;8.296;2024-01-07T13:18:50;2.63;;;2.10;;
13985;SDS011;7067;51.832;8.296;2024-01-07T13:21:16;2.83;;;2.20;;
13985;SDS011;7067;51.832;8.296;2024-01-07T13:23:42;2.17;;;2.00;;
13985;SDS011;7067;51.832;8.296;2024-01-07T13:26:09;2.60;;;1.87;;
13985;SDS011;7067;51.832;8.296;2024-01-07T13:28:35;2.27;;;2.07;;
13985;SDS011;7067;51.832;8.296;2024-01-07T13:31:00;2.57;;;2.33;;
13985;SDS011;7067;51.832;8.296;2024-01-07T13:33:25;3.13;;;2.90;;
13985;SDS011;7067;51.832;8.296;2024-01-07T13:35:51;4.47;;;2.80;;
13985;SDS011;7067;51.832;8.296;2024-01-07T13:38:16;4.53;;;3.67;;
13985;SDS011;7067;51.832;8.296;2024-01-07T13:40:41;3.03;;;2.57;;
13985;SDS011;7067;51.832;8.296;2024-01-07T13:43:07;4.70;;;2.90;;
13985;SDS011;7067;51.832;8.296;2024-01-07T13:45:32;3.00;;;2.30;;
13985;SDS011;7067;51.832;8.296;2024-01-07T13:47:57;2.23;;;1.90;;
13985;SDS011;7067;51.832;8.296;2024-01-07T13:50:23;2.57;;;2.33;;
13985;SDS011;7067;51.832;8.296;2024-01-07T13:52:48;4.07;;;2.23;;
13985;SDS011;7067;51.832;8.296;2024-01-07T13:55:13;4.87;;;3.33;;
13985;SDS011;7067;51.832;8.296;2024-01-07T13:57:39;4.57;;;3.27;;
13985;SDS011;7067;51.832;8.296;2024-01-07T14:00:06;4.33;;;2.83;;
13985;SDS011;7067;51.832;8.296;2024-01-07T14:02:38;2.73;;;2.40;;
13985;SDS011;7067;51.832;8.296;2024-01-07T14:05:04;4.83;;;2.63;;
13985;SDS011;7067;51.832;8.296;2024-01-07T14:07:31;2.80;;;2.27;;
13985;SDS011;7067;51.832;8.296;2024-01-07T14:09:58;2.80;;;2.47;;
13985;SDS011;7067;51.832;8.296;2024-01-07T14:12:24;4.13;;;3.20;;
13985;SDS011;7067;51.832;8.296;2024-01-07T14:14:49;4.10;;;3.03;;
13985;SDS011;7067;51.832;8.296;2024-01-07T14:17:15;5.23;;;2.90;;
13985;SDS011;7067;51.832;8.296;2024-01-07T14:19:41;3.43;;;2.60;;
13985;SDS011;7067;51.832;8.296;2024-01-07T14:22:08;3.00;;;2.10;;
13985;SDS011;7067;51.832;8.296;2024-01-07T14:24:34;2.60;;;2.40;;
13985;SDS011;7067;51.832;8.296;2024-01-07T14:26:59;7.17;;;2.90;;
13985;SDS011;7067;51.832;8.296;2024-01-07T14:29:25;2.90;;;2.17;;
13985;SDS011;7067;51.832;8.296;2024-01-07T14:31:50;3.17;;;2.70;;
13985;SDS011;7067;51.832;8.296;2024-01-07T14:34:15;5.87;;;2.90;;
13985;SDS011;7067;51.832;8.296;2024-01-07T14:36:41;2.50;;;2.30;;
13985;SDS011;7067;51.832;8.296;2024-01-07T14:39:08;4.40;;;3.20;;
13985;SDS011;7067;51.832;8.296;2024-01-07T14:41:34;4.90;;;3.03;;
13985;SDS011;7067;51.832;8.296;2024-01-07T14:44:00;2.70;;;2.50;;
13985;SDS011;7067;51.832;8.296;2024-01-07T14:46:25;4.00;;;2.70;;
13985;SDS011;7067;51.832;8.296;2024-01-07T14:48:51;3.60;;;2.23;;
13985;SDS011;7067;51.832;8.296;2024-01-07T14:51:16;4.30;;;2.50;;